Eureka, Arkansas
Current Conditions -  °F | °C
As of 3:57 AM on Monday 26 Jan 2015 (Local Time) from KROG Reporting Station
Overcast Overcast  
Wind Chill: 32°   Ceiling: 1700
Heat Index: 36°   Visibility: 10mi
Dew Point: 29°   Wind: 5mph
Humidity: 76%   Direction: 320°NW
Pressure: 30.1"   Gusts: NA
Location:  36.4036°N, 93.7443°W
Report Text: KROG 260957Z 32004KT 10SM OVC017 02/M02 A3010 RMK AO2 SLP200 T00221017
Loading
Personal Weather Stations






























Interactive Weather Map New forecast layout! Learn more

10-Day Weather Forecast

Advertisements
Track Severe Weather on mobile